createdAt,value
2016-11-12T00:00:00.350Z,0
2016-11-12T00:01:14.461Z,0
2016-11-12T00:02:28.471Z,0
2016-11-12T00:03:42.561Z,0
2016-11-12T00:04:56.837Z,0
2016-11-12T00:06:11.051Z,0
2016-11-12T00:07:24.890Z,0
2016-11-12T00:10:08.729Z,0
2016-11-12T00:11:22.808Z,0
2016-11-12T00:14:21.345Z,0
2016-11-12T00:15:35.163Z,0
2016-11-12T00:16:49.234Z,0
2016-11-12T00:18:05.026Z,0
2016-11-12T00:19:19.077Z,0
2016-11-12T00:20:33.530Z,0
2016-11-12T00:21:49.168Z,0
2016-11-12T00:23:19.266Z,0
2016-11-12T00:24:33.525Z,0
2016-11-12T00:25:47.307Z,0
2016-11-12T00:27:01.150Z,0
2016-11-12T00:28:15.511Z,0
2016-11-12T00:29:29.380Z,0
2016-11-12T00:30:43.764Z,0
2016-11-12T00:31:57.710Z,0
2016-11-12T00:33:12.131Z,0
2016-11-12T00:34:25.884Z,0
2016-11-12T00:35:39.913Z,0
2016-11-12T00:36:54.108Z,0
2016-11-12T00:38:10.911Z,0
2016-11-12T00:39:25.433Z,0
2016-11-12T00:40:39.226Z,0
2016-11-12T00:41:53.742Z,0
2016-11-12T00:43:09.024Z,0
2016-11-12T00:44:23.566Z,0
2016-11-12T00:45:37.747Z,0
2016-11-12T00:47:17.344Z,0
2016-11-12T00:48:31.516Z,0
2016-11-12T00:49:46.388Z,0
2016-11-12T00:51:00.874Z,0
2016-11-12T00:52:16.263Z,0
2016-11-12T00:53:32.587Z,0
2016-11-12T00:54:47.350Z,0
2016-11-12T00:56:01.599Z,0
2016-11-12T00:57:16.886Z,0
2016-11-12T00:58:32.334Z,0
2016-11-12T00:59:46.353Z,0
2016-11-12T01:01:00.724Z,0
2016-11-12T01:02:14.554Z,0
2016-11-12T01:03:28.740Z,0
2016-11-12T01:04:43.115Z,0
2016-11-12T01:05:57.045Z,0
2016-11-12T01:07:11.820Z,0
2016-11-12T01:08:25.750Z,0
2016-11-12T01:09:39.625Z,0
2016-11-12T01:10:54.454Z,0
2016-11-12T01:12:08.694Z,0
2016-11-12T01:13:23.976Z,0
2016-11-12T01:14:38.857Z,0
2016-11-12T01:15:53.086Z,0
2016-11-12T01:17:07.280Z,0
2016-11-12T01:18:21.843Z,0
2016-11-12T01:19:35.712Z,0
2016-11-12T01:20:49.620Z,0
2016-11-12T01:22:03.313Z,0
2016-11-12T01:23:17.426Z,0
2016-11-12T01:24:46.037Z,0
2016-11-12T01:27:44.062Z,0
2016-11-12T01:28:58.259Z,0
2016-11-12T01:30:12.745Z,0
2016-11-12T01:31:27.916Z,0
2016-11-12T01:32:42.798Z,0
2016-11-12T01:33:57.646Z,0
2016-11-12T01:35:12.460Z,0
2016-11-12T01:36:26.931Z,0
2016-11-12T01:37:40.939Z,0
2016-11-12T01:39:09.680Z,0
2016-11-12T01:40:24.124Z,0
2016-11-12T01:41:38.075Z,0
2016-11-12T01:42:51.679Z,0
2016-11-12T01:44:05.343Z,0
2016-11-12T01:45:19.095Z,0
2016-11-12T01:46:33.491Z,0
2016-11-12T01:47:47.176Z,0
2016-11-12T01:49:01.306Z,0
2016-11-12T01:50:15.377Z,0
2016-11-12T01:51:29.116Z,0
2016-11-12T01:52:43.830Z,0
2016-11-12T01:53:57.586Z,0
2016-11-12T01:55:11.927Z,0
2016-11-12T01:56:28.237Z,0
2016-11-12T01:57:42.028Z,0
2016-11-12T01:58:56.610Z,0
2016-11-12T02:00:10.593Z,0
2016-11-12T02:01:24.296Z,0
2016-11-12T02:02:38.277Z,0
2016-11-12T02:03:52.156Z,0
2016-11-12T02:05:06.723Z,0
2016-11-12T02:06:20.707Z,0
2016-11-12T02:07:34.527Z,0
2016-11-12T02:08:48.265Z,0
2016-11-12T02:10:02.331Z,0
2016-11-12T02:11:16.881Z,0
2016-11-12T02:12:31.025Z,0
2016-11-12T02:13:45.112Z,0
2016-11-12T02:14:58.985Z,0
2016-11-12T02:16:12.719Z,0
2016-11-12T02:17:27.222Z,0
2016-11-12T02:18:41.744Z,0
2016-11-12T02:19:55.606Z,0
2016-11-12T02:21:09.402Z,0
2016-11-12T02:22:23.603Z,0
2016-11-12T02:23:38.053Z,0
2016-11-12T02:24:52.887Z,0
2016-11-12T02:26:06.513Z,0
2016-11-12T02:27:20.826Z,0
2016-11-12T02:28:34.424Z,0
2016-11-12T02:29:48.845Z,0
2016-11-12T02:31:03.258Z,0
2016-11-12T02:32:17.679Z,0
2016-11-12T02:33:31.773Z,0
2016-11-12T02:34:45.688Z,0
2016-11-12T02:35:59.741Z,0
2016-11-12T02:37:13.487Z,0
2016-11-12T02:38:27.765Z,0
2016-11-12T02:39:41.578Z,0
2016-11-12T02:40:55.225Z,0
2016-11-12T02:42:09.621Z,0
2016-11-12T02:43:23.297Z,0
2016-11-12T02:44:37.347Z,0
2016-11-12T02:45:51.182Z,0
2016-11-12T02:47:04.928Z,0
2016-11-12T02:48:19.413Z,0
2016-11-12T02:49:33.237Z,0
2016-11-12T02:50:47.360Z,0
2016-11-12T02:52:01.549Z,0
2016-11-12T02:53:15.386Z,0
2016-11-12T02:54:29.683Z,0
2016-11-12T02:55:43.638Z,0
2016-11-12T02:56:57.566Z,0
2016-11-12T02:58:11.082Z,0
2016-11-12T02:59:25.242Z,0
2016-11-12T03:00:39.827Z,0
2016-11-12T03:01:53.674Z,0
2016-11-12T03:03:07.856Z,0
2016-11-12T03:04:21.978Z,0
2016-11-12T03:05:35.944Z,0
2016-11-12T03:06:50.440Z,0
2016-11-12T03:08:04.421Z,0
2016-11-12T03:09:18.665Z,0
2016-11-12T03:10:32.701Z,0
2016-11-12T03:11:46.684Z,0
2016-11-12T03:13:03.320Z,0
2016-11-12T03:14:17.632Z,0
2016-11-12T03:15:31.347Z,0
2016-11-12T03:16:45.103Z,0
2016-11-12T03:17:59.297Z,0
2016-11-12T03:19:13.690Z,0
2016-11-12T03:20:27.829Z,0
2016-11-12T03:21:41.671Z,0
2016-11-12T03:22:55.527Z,0
2016-11-12T03:24:09.310Z,0
2016-11-12T03:25:23.782Z,0
2016-11-12T03:26:37.560Z,0
2016-11-12T03:27:51.941Z,0
2016-11-12T03:29:06.115Z,0
2016-11-12T03:30:20.244Z,0
2016-11-12T03:31:34.459Z,0
2016-11-12T03:33:03.422Z,0
2016-11-12T03:34:17.393Z,0
2016-11-12T03:35:30.980Z,0
2016-11-12T03:36:44.922Z,0
2016-11-12T03:37:58.772Z,0
2016-11-12T03:39:12.899Z,0
2016-11-12T03:40:26.655Z,0
2016-11-12T03:41:40.610Z,0
2016-11-12T03:42:54.405Z,0
2016-11-12T03:44:08.147Z,0
2016-11-12T03:45:22.644Z,0
2016-11-12T03:46:36.363Z,0
2016-11-12T03:47:50.251Z,0
2016-11-12T03:49:04.144Z,0
2016-11-12T03:50:18.033Z,0
2016-11-12T03:51:32.119Z,0
2016-11-12T03:52:45.746Z,0
2016-11-12T03:53:59.450Z,0
2016-11-12T03:55:13.621Z,0
2016-11-12T03:56:27.382Z,0
2016-11-12T03:57:41.378Z,0
2016-11-12T03:58:55.208Z,0
2016-11-12T04:00:09.321Z,0
2016-11-12T04:01:23.811Z,0
2016-11-12T04:02:37.472Z,0
2016-11-12T04:03:51.838Z,0
2016-11-12T04:05:05.556Z,0
2016-11-12T04:06:19.420Z,0
2016-11-12T04:07:33.862Z,0
2016-11-12T04:08:47.691Z,0
2016-11-12T04:10:01.685Z,0
2016-11-12T04:14:13.320Z,0
2016-11-12T04:15:27.219Z,0
2016-11-12T04:16:41.073Z,0
2016-11-12T04:17:55.028Z,0
2016-11-12T04:19:09.455Z,0
2016-11-12T04:20:24.513Z,0
2016-11-12T04:21:38.298Z,0
2016-11-12T04:22:52.185Z,0
2016-11-12T04:24:06.019Z,0
2016-11-12T04:25:20.251Z,0
2016-11-12T04:26:34.465Z,0
2016-11-12T04:27:48.923Z,0
2016-11-12T04:29:02.714Z,0
2016-11-12T04:30:16.603Z,0
2016-11-12T04:31:32.759Z,0
2016-11-12T04:32:47.063Z,0
2016-11-12T04:34:01.554Z,0
2016-11-12T04:35:15.324Z,0
2016-11-12T04:39:27.030Z,0
2016-11-12T04:40:41.229Z,0
2016-11-12T04:41:55.057Z,0
2016-11-12T04:43:08.891Z,0
2016-11-12T04:44:22.823Z,0
2016-11-12T04:45:37.734Z,0
2016-11-12T04:46:52.345Z,0
2016-11-12T04:48:06.819Z,0
2016-11-12T04:49:21.421Z,0
2016-11-12T04:50:35.562Z,0
2016-11-12T04:51:50.000Z,0
2016-11-12T04:53:03.884Z,0
2016-11-12T04:54:17.821Z,0
2016-11-12T04:55:32.629Z,0
2016-11-12T04:56:46.378Z,0
2016-11-12T04:58:01.349Z,0
2016-11-12T04:59:15.245Z,0
2016-11-12T05:00:28.991Z,0
2016-11-12T05:01:42.819Z,0
2016-11-12T05:03:12.122Z,0
2016-11-12T05:04:26.109Z,0
2016-11-12T05:05:41.006Z,0
2016-11-12T05:06:54.971Z,0
2016-11-12T05:08:08.846Z,0
2016-11-12T05:09:23.125Z,0
2016-11-12T05:10:37.435Z,0
2016-11-12T05:11:51.488Z,0
2016-11-12T05:13:05.859Z,0
2016-11-12T05:14:20.161Z,0
2016-11-12T05:15:34.304Z,0
2016-11-12T05:16:48.743Z,0
2016-11-12T05:18:02.619Z,0
2016-11-12T05:19:16.639Z,0
2016-11-12T05:20:30.465Z,0
2016-11-12T05:21:44.959Z,0
2016-11-12T05:22:59.609Z,0
2016-11-12T05:24:13.450Z,0
2016-11-12T05:25:27.308Z,0
2016-11-12T05:26:41.087Z,0
2016-11-12T05:27:55.437Z,0
2016-11-12T05:29:09.510Z,0
2016-11-12T05:30:23.381Z,0
2016-11-12T05:31:37.358Z,0
2016-11-12T05:32:51.406Z,0
2016-11-12T05:34:05.492Z,0
2016-11-12T05:35:19.621Z,0
2016-11-12T05:36:33.457Z,0
2016-11-12T05:37:47.938Z,0
2016-11-12T05:39:02.314Z,0
2016-11-12T05:40:16.519Z,0
2016-11-12T05:41:30.875Z,0
2016-11-12T05:42:44.820Z,0
2016-11-12T05:43:59.253Z,0
2016-11-12T05:45:12.769Z,0
2016-11-12T05:46:27.146Z,0
2016-11-12T05:47:56.003Z,0
2016-11-12T05:49:09.864Z,0
2016-11-12T05:50:26.580Z,0
2016-11-12T05:51:55.694Z,0
2016-11-12T05:53:10.576Z,0
2016-11-12T05:54:24.723Z,0
2016-11-12T05:55:38.510Z,0
2016-11-12T05:56:52.543Z,0
2016-11-12T05:58:06.669Z,0
2016-11-12T05:59:20.534Z,0
2016-11-12T06:00:35.302Z,0
2016-11-12T06:01:50.941Z,0
2016-11-12T06:03:04.999Z,0
2016-11-12T06:04:19.043Z,0
2016-11-12T06:05:33.101Z,0
2016-11-12T06:06:47.314Z,0
2016-11-12T06:08:09.450Z,0
2016-11-12T06:09:26.134Z,0
2016-11-12T06:10:41.430Z,0
2016-11-12T06:11:55.667Z,0
2016-11-12T06:13:10.249Z,0
2016-11-12T06:14:24.347Z,0
2016-11-12T06:15:38.408Z,0
2016-11-12T06:16:54.979Z,0
2016-11-12T06:18:18.238Z,0
2016-11-12T06:19:38.492Z,0
2016-11-12T06:21:15.071Z,0
2016-11-12T06:22:38.925Z,0
2016-11-12T06:23:55.118Z,0
2016-11-12T06:25:10.933Z,0
2016-11-12T06:26:25.707Z,0
2016-11-12T06:27:39.962Z,0
2016-11-12T06:28:55.242Z,0
2016-11-12T06:30:09.798Z,0
2016-11-12T06:31:25.346Z,0
2016-11-12T06:32:40.349Z,0
2016-11-12T06:33:55.354Z,0
2016-11-12T06:35:13.550Z,0
2016-11-12T06:36:28.753Z,5
2016-11-12T06:37:43.155Z,5
2016-11-12T06:38:57.538Z,5
2016-11-12T06:40:11.666Z,5
2016-11-12T06:41:26.558Z,5
2016-11-12T06:42:40.672Z,5
2016-11-12T06:43:55.291Z,5
2016-11-12T06:45:11.144Z,5
2016-11-12T06:46:25.653Z,10
2016-11-12T06:47:39.884Z,10
2016-11-12T06:48:54.193Z,10
2016-11-12T06:50:09.393Z,10
2016-11-12T06:51:23.545Z,10
2016-11-12T06:52:40.274Z,10
2016-11-12T06:53:55.241Z,15
2016-11-12T06:55:15.261Z,15
2016-11-12T06:56:30.677Z,15
2016-11-12T06:57:44.929Z,15
2016-11-12T06:58:59.188Z,15
2016-11-12T07:00:13.213Z,20
2016-11-12T07:01:27.527Z,20
2016-11-12T07:02:41.723Z,20
2016-11-12T07:03:55.647Z,20
2016-11-12T07:05:09.629Z,20
2016-11-12T07:06:53.255Z,20
2016-11-12T07:08:07.488Z,20
2016-11-12T07:09:23.752Z,25
2016-11-12T07:10:37.597Z,25
2016-11-12T07:12:06.864Z,30
2016-11-12T07:13:21.149Z,30
2016-11-12T07:14:35.538Z,30
2016-11-12T07:15:49.603Z,30
2016-11-12T07:17:03.863Z,30
2016-11-12T07:18:18.355Z,35
2016-11-12T07:19:32.879Z,35
2016-11-12T07:22:15.727Z,40
2016-11-12T07:23:29.632Z,40
2016-11-12T07:24:43.193Z,40
2016-11-12T07:26:12.185Z,45
2016-11-12T07:27:40.826Z,45
2016-11-12T07:28:54.978Z,45
2016-11-12T07:30:08.678Z,50
2016-11-12T07:31:22.320Z,50
2016-11-12T07:32:36.545Z,50
2016-11-12T07:34:05.053Z,55
2016-11-12T07:35:19.073Z,55
2016-11-12T07:36:32.549Z,55
2016-11-12T07:37:49.522Z,60
2016-11-12T07:39:03.806Z,60
2016-11-12T07:40:17.604Z,65
2016-11-12T07:41:32.019Z,65
2016-11-12T07:42:45.568Z,65
2016-11-12T07:44:14.488Z,70
2016-11-12T07:45:28.068Z,70
2016-11-12T07:46:42.487Z,70
2016-11-12T07:47:56.331Z,75
2016-11-12T07:49:10.411Z,75
2016-11-12T07:50:24.152Z,75
2016-11-12T07:51:38.078Z,75
2016-11-12T07:52:51.987Z,75
2016-11-12T07:54:20.737Z,80
2016-11-12T07:55:34.711Z,85
2016-11-12T07:56:48.516Z,80
2016-11-12T07:58:02.878Z,75
2016-11-12T07:59:17.151Z,80
2016-11-12T08:00:31.022Z,80
2016-11-12T08:01:44.942Z,80
2016-11-12T08:02:58.904Z,75
2016-11-12T08:04:12.583Z,75
2016-11-12T08:05:26.561Z,80
2016-11-12T08:06:40.638Z,80
2016-11-12T08:07:54.729Z,85
2016-11-12T08:09:08.981Z,85
2016-11-12T08:10:23.132Z,85
2016-11-12T08:11:36.803Z,85
2016-11-12T08:12:50.925Z,90
2016-11-12T08:14:19.938Z,90
2016-11-12T08:15:33.778Z,95
2016-11-12T08:16:47.299Z,95
2016-11-12T08:18:00.805Z,95
2016-11-12T08:19:14.643Z,95
2016-11-12T08:20:29.040Z,95
2016-11-12T08:21:43.322Z,100
2016-11-12T08:22:57.290Z,100
2016-11-12T08:24:10.919Z,100
2016-11-12T08:25:24.832Z,100
2016-11-12T08:26:38.499Z,105
2016-11-12T08:27:55.290Z,105
2016-11-12T08:29:09.412Z,105
2016-11-12T08:30:23.697Z,110
2016-11-12T08:31:37.901Z,105
2016-11-12T08:32:51.573Z,115
2016-11-12T08:35:09.885Z,105
2016-11-12T08:36:23.573Z,105
2016-11-12T08:37:37.488Z,105
2016-11-12T08:38:51.431Z,110
2016-11-12T08:40:05.118Z,110
2016-11-12T08:41:20.878Z,110
2016-11-12T08:42:34.801Z,115
2016-11-12T08:43:49.798Z,110
2016-11-12T08:45:03.677Z,110
2016-11-12T08:46:17.322Z,110
2016-11-12T08:47:32.033Z,110
2016-11-12T08:48:45.918Z,110
2016-11-12T08:49:59.833Z,115
2016-11-12T08:51:13.697Z,115
2016-11-12T08:52:27.483Z,115
2016-11-12T08:53:41.913Z,110
2016-11-12T08:54:56.126Z,110
2016-11-12T08:56:09.856Z,110
2016-11-12T08:57:23.844Z,110
2016-11-12T08:58:37.735Z,115
2016-11-12T08:59:51.889Z,120
2016-11-12T09:01:06.032Z,120
2016-11-12T09:02:19.892Z,120
2016-11-12T09:03:34.093Z,115
2016-11-12T09:04:47.801Z,115
2016-11-12T09:06:02.115Z,120
2016-11-12T09:07:16.252Z,120
2016-11-12T09:08:30.115Z,120
2016-11-12T09:09:44.181Z,120
2016-11-12T09:10:58.034Z,120
2016-11-12T09:12:12.084Z,120
2016-11-12T09:14:10.462Z,130
2016-11-12T09:15:39.340Z,130
2016-11-12T09:17:07.818Z,135
2016-11-12T09:18:21.593Z,130
2016-11-12T09:19:35.166Z,125
2016-11-12T09:20:49.795Z,130
2016-11-12T09:22:03.800Z,135
2016-11-12T09:23:17.495Z,145
2016-11-12T09:24:31.642Z,150
2016-11-12T09:25:46.074Z,150
2016-11-12T09:27:00.169Z,150
2016-11-12T09:28:14.093Z,150
2016-11-12T09:29:42.674Z,145
2016-11-12T09:30:56.920Z,145
2016-11-12T09:32:10.696Z,145
2016-11-12T09:33:24.684Z,140
2016-11-12T09:34:38.919Z,140
2016-11-12T09:36:07.278Z,140
2016-11-12T09:37:21.579Z,145
2016-11-12T09:38:35.486Z,145
2016-11-12T09:39:49.037Z,150
2016-11-12T09:41:03.161Z,145
2016-11-12T09:42:31.776Z,145
2016-11-12T09:43:45.636Z,145
2016-11-12T09:44:59.217Z,150
2016-11-12T09:47:43.882Z,145
2016-11-12T09:48:58.829Z,150
2016-11-12T09:50:13.126Z,150
2016-11-12T09:51:27.402Z,145
2016-11-12T09:52:40.970Z,140
2016-11-12T09:53:54.921Z,140
2016-11-12T09:55:09.580Z,140
2016-11-12T09:56:38.497Z,135
2016-11-12T09:57:52.186Z,130
2016-11-12T09:59:06.020Z,130
2016-11-12T10:00:19.805Z,130
2016-11-12T10:01:34.519Z,135
2016-11-12T10:02:48.302Z,135
2016-11-12T10:04:02.935Z,135
2016-11-12T10:05:16.923Z,135
2016-11-12T10:06:31.118Z,135
2016-11-12T10:07:45.982Z,140
2016-11-12T10:09:00.140Z,140
2016-11-12T10:10:14.003Z,140
2016-11-12T10:11:28.231Z,140
2016-11-12T10:12:42.057Z,140
2016-11-12T10:14:11.310Z,145
2016-11-12T10:15:25.501Z,145
2016-11-12T10:16:39.137Z,140
2016-11-12T10:17:52.811Z,140
2016-11-12T10:19:06.781Z,145
2016-11-12T10:20:21.274Z,140
2016-11-12T10:21:36.110Z,145
2016-11-12T10:22:49.797Z,145
2016-11-12T10:27:45.842Z,140
2016-11-12T10:28:59.632Z,145
2016-11-12T10:30:13.437Z,145
2016-11-12T10:31:27.076Z,140
2016-11-12T10:32:40.689Z,140
2016-11-12T10:33:54.714Z,145
2016-11-12T10:35:08.314Z,145
2016-11-12T10:36:22.414Z,150
2016-11-12T10:37:36.830Z,155
2016-11-12T10:38:50.711Z,155
2016-11-12T10:40:05.745Z,160
2016-11-12T10:41:19.648Z,160
2016-11-12T10:42:49.353Z,160
2016-11-12T10:44:03.606Z,155
2016-11-12T10:45:17.981Z,160
2016-11-12T10:46:32.246Z,155
2016-11-12T10:47:46.076Z,150
2016-11-12T10:49:00.085Z,145
2016-11-12T10:50:13.713Z,135
2016-11-12T10:51:27.505Z,125
2016-11-12T10:52:41.320Z,125
2016-11-12T10:53:55.242Z,130
2016-11-12T10:55:08.717Z,135
2016-11-12T10:56:22.914Z,135
2016-11-12T10:57:37.076Z,140
2016-11-12T10:58:51.163Z,140
2016-11-12T11:00:05.467Z,140
2016-11-12T11:01:19.459Z,140
2016-11-12T11:02:33.585Z,135
2016-11-12T11:04:02.537Z,140
2016-11-12T11:05:16.091Z,145
2016-11-12T11:06:30.712Z,145
2016-11-12T11:07:46.820Z,150
2016-11-12T11:09:01.552Z,155
2016-11-12T11:10:15.592Z,155
2016-11-12T11:11:29.470Z,155
2016-11-12T11:12:43.447Z,155
2016-11-12T11:13:57.950Z,150
2016-11-12T11:15:12.246Z,145
2016-11-12T11:16:26.429Z,140
2016-11-12T11:17:40.788Z,135
2016-11-12T11:18:54.635Z,130
2016-11-12T11:20:09.207Z,130
2016-11-12T11:21:23.593Z,130
2016-11-12T11:22:38.171Z,110
2016-11-12T11:23:51.879Z,105
2016-11-12T11:25:05.642Z,105
2016-11-12T11:26:19.352Z,110
2016-11-12T11:27:34.283Z,105
2016-11-12T11:28:48.773Z,115
2016-11-12T11:30:03.060Z,110
2016-11-12T11:31:17.446Z,105
2016-11-12T11:32:32.229Z,100
2016-11-12T11:33:47.045Z,110
2016-11-12T11:35:01.600Z,115
2016-11-12T11:36:17.045Z,125
2016-11-12T11:37:33.136Z,130
2016-11-12T11:38:47.316Z,130
2016-11-12T11:40:02.330Z,135
2016-11-12T11:41:19.061Z,135
2016-11-12T11:42:34.065Z,135
2016-11-12T11:43:48.444Z,135
2016-11-12T11:45:02.476Z,135
2016-11-12T11:46:17.483Z,135
2016-11-12T11:47:33.371Z,135
2016-11-12T11:48:47.744Z,135
2016-11-12T11:50:02.679Z,130
2016-11-12T11:51:18.220Z,130
2016-11-12T11:52:32.843Z,135
2016-11-12T11:53:48.159Z,140
2016-11-12T11:55:02.510Z,140
2016-11-12T11:56:16.351Z,140
2016-11-12T11:57:29.917Z,140
2016-11-12T11:58:43.794Z,145
2016-11-12T11:59:58.002Z,145
2016-11-12T12:01:12.186Z,145
2016-11-12T12:02:26.240Z,145
2016-11-12T12:03:40.223Z,145
2016-11-12T12:04:54.895Z,145
2016-11-12T12:06:08.467Z,140
2016-11-12T12:07:22.334Z,135
2016-11-12T12:08:35.943Z,130
2016-11-12T12:09:49.555Z,125
2016-11-12T12:11:03.818Z,115
2016-11-12T12:12:17.608Z,115
2016-11-12T12:13:31.770Z,120
2016-11-12T12:14:45.755Z,125
2016-11-12T12:15:59.634Z,125
2016-11-12T12:17:13.279Z,125
2016-11-12T12:18:27.081Z,125
2016-11-12T12:21:08.947Z,130
2016-11-12T12:22:23.209Z,125
2016-11-12T12:23:37.663Z,125
2016-11-12T12:25:08.406Z,125
2016-11-12T12:26:22.049Z,125
2016-11-12T12:27:35.964Z,125
2016-11-12T12:28:50.007Z,125
2016-11-12T12:30:44.044Z,115
2016-11-12T12:31:57.544Z,110
2016-11-12T12:33:11.111Z,105
2016-11-12T12:34:25.319Z,105
2016-11-12T12:35:39.651Z,100
2016-11-12T12:36:53.275Z,100
2016-11-12T12:38:07.369Z,105
2016-11-12T12:39:21.039Z,110
2016-11-12T12:40:34.983Z,105
2016-11-12T12:41:49.219Z,105
2016-11-12T12:43:03.619Z,105
2016-11-12T12:44:17.830Z,110
2016-11-12T12:45:31.857Z,110
2016-11-12T12:46:45.647Z,110
2016-11-12T12:47:59.592Z,115
2016-11-12T12:49:13.890Z,115
2016-11-12T12:50:28.240Z,110
2016-11-12T12:51:42.457Z,110
2016-11-12T12:52:57.018Z,105
2016-11-12T12:54:11.102Z,100
2016-11-12T12:55:25.501Z,100
2016-11-12T12:56:39.574Z,100
2016-11-12T12:57:53.467Z,105
2016-11-12T12:59:07.400Z,105
2016-11-12T13:00:21.366Z,100
2016-11-12T13:01:35.710Z,105
2016-11-12T13:02:49.558Z,105
2016-11-12T13:04:03.568Z,105
2016-11-12T13:05:17.910Z,100
2016-11-12T13:06:32.164Z,100
2016-11-12T13:07:46.894Z,100
2016-11-12T13:09:01.352Z,95
2016-11-12T13:10:16.359Z,95
2016-11-12T13:11:31.950Z,95
2016-11-12T13:12:46.079Z,95
2016-11-12T13:14:00.967Z,90
2016-11-12T13:15:15.324Z,90
2016-11-12T13:16:29.626Z,90
2016-11-12T13:17:44.097Z,85
2016-11-12T13:18:58.198Z,85
2016-11-12T13:20:12.068Z,85
2016-11-12T13:21:26.437Z,85
2016-11-12T13:22:40.037Z,90
2016-11-12T13:24:10.112Z,90
2016-11-12T13:25:24.388Z,85
2016-11-12T13:26:39.223Z,80
2016-11-12T13:27:54.852Z,80
2016-11-12T13:29:09.128Z,80
2016-11-12T13:30:24.122Z,80
2016-11-12T13:31:39.286Z,80
2016-11-12T13:32:53.590Z,80
2016-11-12T13:34:08.982Z,85
2016-11-12T13:35:24.246Z,85
2016-11-12T13:36:38.765Z,85
2016-11-12T13:37:52.858Z,85
2016-11-12T13:39:06.752Z,90
2016-11-12T13:40:21.349Z,90
2016-11-12T13:41:35.494Z,85
2016-11-12T13:42:53.377Z,85
2016-11-12T13:44:08.848Z,85
2016-11-12T13:45:23.073Z,80
2016-11-12T13:46:37.690Z,80
2016-11-12T13:47:52.459Z,80
2016-11-12T13:49:07.526Z,75
2016-11-12T13:50:22.023Z,75
2016-11-12T13:51:36.324Z,75
2016-11-12T13:52:51.853Z,70
2016-11-12T13:54:05.762Z,70
2016-11-12T13:55:19.739Z,70
2016-11-12T13:56:33.581Z,70
2016-11-12T13:57:48.176Z,70
2016-11-12T13:59:17.092Z,70
2016-11-12T14:00:31.710Z,70
2016-11-12T14:01:46.961Z,70
2016-11-12T14:03:01.013Z,70
2016-11-12T14:04:15.266Z,70
2016-11-12T14:05:29.165Z,65
2016-11-12T14:06:43.592Z,70
2016-11-12T14:07:57.800Z,70
2016-11-12T14:09:11.952Z,70
2016-11-12T14:10:27.924Z,70
2016-11-12T14:11:42.874Z,70
2016-11-12T14:13:12.171Z,65
2016-11-12T14:14:27.454Z,65
2016-11-12T14:15:42.075Z,65
2016-11-12T14:16:57.712Z,65
2016-11-12T14:18:11.489Z,65
2016-11-12T14:19:42.842Z,65
2016-11-12T14:20:56.595Z,65
2016-11-12T14:22:11.099Z,65
2016-11-12T14:23:25.117Z,60
2016-11-12T14:24:39.361Z,60
2016-11-12T14:25:53.617Z,60
2016-11-12T14:27:09.739Z,60
2016-11-12T14:28:28.506Z,55
2016-11-12T14:29:45.017Z,55
2016-11-12T14:31:01.388Z,55
2016-11-12T14:32:22.923Z,55
2016-11-12T14:33:36.801Z,50
2016-11-12T14:34:51.089Z,50
2016-11-12T14:36:05.835Z,50
2016-11-12T14:37:19.856Z,50
2016-11-12T14:38:35.036Z,50
2016-11-12T14:40:03.863Z,50
2016-11-12T14:41:18.739Z,50
2016-11-12T14:42:32.765Z,50
2016-11-12T14:43:47.012Z,45
2016-11-12T14:45:01.456Z,45
2016-11-12T14:46:15.407Z,45
2016-11-12T14:47:29.343Z,45
2016-11-12T14:48:43.054Z,45
2016-11-12T14:49:57.808Z,45
2016-11-12T14:51:12.226Z,45
2016-11-12T14:52:26.350Z,45
2016-11-12T14:53:40.485Z,45
2016-11-12T14:54:54.348Z,45
2016-11-12T14:56:08.446Z,45
2016-11-12T14:57:22.805Z,45
2016-11-12T14:58:36.457Z,45
2016-11-12T14:59:50.255Z,40
2016-11-12T15:01:21.418Z,40
2016-11-12T15:02:36.240Z,40
2016-11-12T15:03:50.181Z,40
2016-11-12T15:05:33.432Z,35
2016-11-12T15:06:48.284Z,35
2016-11-12T15:08:02.703Z,35
2016-11-12T15:09:17.232Z,30
2016-11-12T15:10:31.483Z,30
2016-11-12T15:11:45.738Z,30
2016-11-12T15:12:59.668Z,30
2016-11-12T15:14:14.627Z,25
2016-11-12T15:15:28.467Z,25
2016-11-12T15:16:42.502Z,25
2016-11-12T15:17:56.545Z,20
2016-11-12T15:19:10.260Z,20
2016-11-12T15:20:24.735Z,20
2016-11-12T15:21:38.747Z,20
2016-11-12T15:22:52.751Z,15
2016-11-12T15:24:07.511Z,15
2016-11-12T15:25:22.175Z,15
2016-11-12T15:26:36.172Z,15
2016-11-12T15:27:50.651Z,15
2016-11-12T15:29:04.613Z,10
2016-11-12T15:30:20.105Z,10
2016-11-12T15:31:33.812Z,10
2016-11-12T15:32:49.075Z,10
2016-11-12T15:34:17.713Z,10
2016-11-12T15:35:31.809Z,5
2016-11-12T15:36:46.274Z,5
2016-11-12T15:38:00.462Z,5
2016-11-12T15:39:14.716Z,5
2016-11-12T15:40:28.362Z,5
2016-11-12T15:41:42.641Z,5
2016-11-12T15:42:58.085Z,0
2016-11-12T15:44:12.287Z,0
2016-11-12T15:45:26.308Z,0
2016-11-12T15:46:40.800Z,0
2016-11-12T15:47:55.372Z,0
2016-11-12T15:49:08.915Z,0
2016-11-12T15:50:23.521Z,0
2016-11-12T15:51:37.653Z,0
2016-11-12T15:52:51.693Z,0
2016-11-12T15:54:06.491Z,0
2016-11-12T15:55:20.444Z,0
2016-11-12T15:56:35.334Z,0
2016-11-12T15:57:49.396Z,0
2016-11-12T15:59:04.186Z,0
2016-11-12T16:00:18.421Z,0
2016-11-12T16:01:32.392Z,0
2016-11-12T16:02:46.273Z,0
2016-11-12T16:04:00.076Z,0
2016-11-12T16:05:14.214Z,0
2016-11-12T16:06:28.848Z,0
2016-11-12T16:07:43.117Z,0
2016-11-12T16:08:58.036Z,0
2016-11-12T16:10:12.113Z,0
2016-11-12T16:11:40.829Z,0
2016-11-12T16:12:55.059Z,0
2016-11-12T16:14:10.547Z,0
2016-11-12T16:15:25.048Z,0
2016-11-12T16:16:38.756Z,0
2016-11-12T16:17:53.530Z,0
2016-11-12T16:19:10.151Z,0
2016-11-12T16:20:24.864Z,0
2016-11-12T16:21:38.542Z,0
2016-11-12T16:22:52.081Z,0
2016-11-12T16:24:05.779Z,0
2016-11-12T16:25:19.749Z,0
2016-11-12T16:26:34.195Z,0
2016-11-12T16:27:48.738Z,0
2016-11-12T16:29:03.232Z,0
2016-11-12T16:30:18.188Z,0
2016-11-12T16:31:32.163Z,0
2016-11-12T16:32:47.321Z,0
2016-11-12T16:34:01.042Z,0
2016-11-12T16:35:15.235Z,0
2016-11-12T16:36:29.647Z,0
2016-11-12T16:37:43.514Z,0
2016-11-12T16:38:58.666Z,0
2016-11-12T16:40:13.322Z,0
2016-11-12T16:41:27.986Z,0
2016-11-12T16:42:42.133Z,0
2016-11-12T16:43:55.927Z,0
2016-11-12T16:45:11.707Z,0
2016-11-12T16:46:26.528Z,0
2016-11-12T16:47:40.680Z,0
2016-11-12T16:48:54.397Z,0
2016-11-12T16:50:08.866Z,0
2016-11-12T16:51:23.225Z,0
2016-11-12T16:52:37.000Z,0
2016-11-12T16:53:50.718Z,0
2016-11-12T16:55:04.642Z,0
2016-11-12T16:56:18.480Z,0
2016-11-12T16:57:33.341Z,0
2016-11-12T16:58:47.384Z,0
2016-11-12T17:00:01.569Z,0
2016-11-12T17:01:16.002Z,0
2016-11-12T17:02:29.750Z,0
2016-11-12T17:03:44.092Z,0
2016-11-12T17:04:58.081Z,0
2016-11-12T17:06:12.944Z,0
2016-11-12T17:07:28.153Z,0
2016-11-12T17:08:41.980Z,0
2016-11-12T17:09:55.740Z,0
2016-11-12T17:11:09.591Z,0
2016-11-12T17:12:23.766Z,0
2016-11-12T17:13:37.821Z,0
2016-11-12T17:14:52.049Z,0
2016-11-12T17:16:06.492Z,0
2016-11-12T17:17:21.048Z,0
2016-11-12T17:18:35.279Z,0
2016-11-12T17:20:03.989Z,0
2016-11-12T17:21:18.025Z,0
2016-11-12T17:22:32.585Z,0
2016-11-12T17:23:46.473Z,0
2016-11-12T17:25:00.622Z,0
2016-11-12T17:26:14.365Z,0
2016-11-12T17:28:57.655Z,0
2016-11-12T17:30:11.782Z,0
2016-11-12T17:31:26.155Z,0
2016-11-12T17:32:40.339Z,0
2016-11-12T17:33:54.108Z,0
2016-11-12T17:35:08.438Z,0
2016-11-12T17:37:09.120Z,0
2016-11-12T17:38:23.691Z,0
2016-11-12T17:39:38.029Z,0
2016-11-12T17:40:53.579Z,0
2016-11-12T17:42:07.708Z,0
2016-11-12T17:43:21.856Z,0
2016-11-12T17:46:07.415Z,0
2016-11-12T17:47:25.326Z,0
2016-11-12T17:48:41.517Z,0
2016-11-12T17:49:59.613Z,0
2016-11-12T17:51:14.223Z,0
2016-11-12T17:52:31.566Z,0
2016-11-12T17:53:49.809Z,0
2016-11-12T17:55:11.182Z,0
2016-11-12T17:56:35.511Z,0
2016-11-12T17:57:57.922Z,0
2016-11-12T17:59:18.872Z,0
2016-11-12T18:00:44.840Z,0
2016-11-12T18:02:05.803Z,0
2016-11-12T18:03:42.523Z,0
2016-11-12T18:05:18.449Z,0
2016-11-12T18:06:41.189Z,0
2016-11-12T18:07:58.258Z,0
2016-11-12T18:09:12.992Z,0
2016-11-12T18:10:27.367Z,0
2016-11-12T18:11:41.670Z,0
2016-11-12T18:12:56.221Z,0
2016-11-12T18:14:10.693Z,0
2016-11-12T18:15:24.579Z,0
2016-11-12T18:16:39.211Z,0
2016-11-12T18:17:53.529Z,0
2016-11-12T18:19:07.817Z,0
2016-11-12T18:20:22.139Z,0
2016-11-12T18:21:36.643Z,0
2016-11-12T18:22:51.752Z,0
2016-11-12T18:24:05.894Z,0
2016-11-12T18:25:19.958Z,0
2016-11-12T18:26:36.591Z,0